sensor_id;sensor_type;location;lat;lon;timestamp;P1;durP1;ratioP1;P2;durP2;ratioP2
18304;SDS011;9278;52.156;21.048;2023-07-02T00:00:09;17.45;;;12.35;;
18304;SDS011;9278;52.156;21.048;2023-07-02T00:02:38;17.52;;;11.50;;
18304;SDS011;9278;52.156;21.048;2023-07-02T00:05:07;19.00;;;11.48;;
18304;SDS011;9278;52.156;21.048;2023-07-02T00:07:35;19.45;;;11.95;;
18304;SDS011;9278;52.156;21.048;2023-07-02T00:10:04;18.15;;;12.18;;
18304;SDS011;9278;52.156;21.048;2023-07-02T00:12:34;20.67;;;12.57;;
18304;SDS011;9278;52.156;21.048;2023-07-02T00:15:03;19.88;;;12.15;;
18304;SDS011;9278;52.156;21.048;2023-07-02T00:17:32;18.27;;;11.68;;
18304;SDS011;9278;52.156;21.048;2023-07-02T00:20:01;17.50;;;11.90;;
18304;SDS011;9278;52.156;21.048;2023-07-02T00:22:35;17.75;;;11.50;;
18304;SDS011;9278;52.156;21.048;2023-07-02T00:25:03;18.70;;;12.18;;
18304;SDS011;9278;52.156;21.048;2023-07-02T00:27:32;20.38;;;12.73;;
18304;SDS011;9278;52.156;21.048;2023-07-02T00:30:02;16.70;;;11.15;;
18304;SDS011;9278;52.156;21.048;2023-07-02T00:32:30;18.00;;;11.73;;
18304;SDS011;9278;52.156;21.048;2023-07-02T00:34:58;20.77;;;12.00;;
18304;SDS011;9278;52.156;21.048;2023-07-02T00:37:27;17.85;;;12.02;;
18304;SDS011;9278;52.156;21.048;2023-07-02T00:39:55;19.33;;;11.88;;
18304;SDS011;9278;52.156;21.048;2023-07-02T00:42:24;18.50;;;12.75;;
18304;SDS011;9278;52.156;21.048;2023-07-02T00:44:56;19.25;;;12.85;;
18304;SDS011;9278;52.156;21.048;2023-07-02T00:47:30;19.10;;;12.60;;
18304;SDS011;9278;52.156;21.048;2023-07-02T00:50:02;17.42;;;11.10;;
18304;SDS011;9278;52.156;21.048;2023-07-02T00:52:30;18.95;;;11.90;;
18304;SDS011;9278;52.156;21.048;2023-07-02T00:54:58;22.88;;;12.20;;
18304;SDS011;9278;52.156;21.048;2023-07-02T00:57:27;22.13;;;12.18;;
18304;SDS011;9278;52.156;21.048;2023-07-02T00:59:56;18.38;;;11.70;;
18304;SDS011;9278;52.156;21.048;2023-07-02T01:02:27;20.05;;;12.05;;
18304;SDS011;9278;52.156;21.048;2023-07-02T01:04:58;19.13;;;12.45;;
18304;SDS011;9278;52.156;21.048;2023-07-02T01:07:28;21.48;;;12.90;;
18304;SDS011;9278;52.156;21.048;2023-07-02T01:09:56;18.20;;;11.30;;
18304;SDS011;9278;52.156;21.048;2023-07-02T01:12:25;18.17;;;11.40;;
18304;SDS011;9278;52.156;21.048;2023-07-02T01:14:54;20.05;;;11.93;;
18304;SDS011;9278;52.156;21.048;2023-07-02T01:17:27;17.85;;;11.90;;
18304;SDS011;9278;52.156;21.048;2023-07-02T01:20:10;17.85;;;11.75;;
18304;SDS011;9278;52.156;21.048;2023-07-02T01:22:39;18.77;;;12.07;;
18304;SDS011;9278;52.156;21.048;2023-07-02T01:25:08;19.23;;;12.27;;
18304;SDS011;9278;52.156;21.048;2023-07-02T01:27:37;19.77;;;12.55;;
18304;SDS011;9278;52.156;21.048;2023-07-02T01:30:06;19.02;;;12.63;;
18304;SDS011;9278;52.156;21.048;2023-07-02T01:32:37;18.92;;;12.07;;
18304;SDS011;9278;52.156;21.048;2023-07-02T01:35:06;18.30;;;12.18;;
18304;SDS011;9278;52.156;21.048;2023-07-02T01:37:37;18.77;;;12.57;;
18304;SDS011;9278;52.156;21.048;2023-07-02T01:40:06;18.70;;;12.50;;
18304;SDS011;9278;52.156;21.048;2023-07-02T01:42:35;20.17;;;12.00;;
18304;SDS011;9278;52.156;21.048;2023-07-02T01:45:05;18.38;;;12.20;;
18304;SDS011;9278;52.156;21.048;2023-07-02T01:47:34;18.95;;;12.70;;
18304;SDS011;9278;52.156;21.048;2023-07-02T01:50:03;20.75;;;13.35;;
18304;SDS011;9278;52.156;21.048;2023-07-02T01:52:33;22.33;;;12.98;;
18304;SDS011;9278;52.156;21.048;2023-07-02T01:55:03;19.95;;;12.38;;
18304;SDS011;9278;52.156;21.048;2023-07-02T01:57:32;18.40;;;12.70;;
18304;SDS011;9278;52.156;21.048;2023-07-02T02:00:00;16.75;;;11.65;;
18304;SDS011;9278;52.156;21.048;2023-07-02T02:02:40;19.20;;;12.90;;
18304;SDS011;9278;52.156;21.048;2023-07-02T02:05:09;19.73;;;12.63;;
18304;SDS011;9278;52.156;21.048;2023-07-02T02:07:38;19.15;;;12.15;;
18304;SDS011;9278;52.156;21.048;2023-07-02T02:10:08;20.02;;;12.82;;
18304;SDS011;9278;52.156;21.048;2023-07-02T02:12:37;21.92;;;13.02;;
18304;SDS011;9278;52.156;21.048;2023-07-02T02:15:06;21.60;;;13.18;;
18304;SDS011;9278;52.156;21.048;2023-07-02T02:17:34;19.25;;;12.35;;
18304;SDS011;9278;52.156;21.048;2023-07-02T02:20:04;20.70;;;12.90;;
18304;SDS011;9278;52.156;21.048;2023-07-02T02:22:35;17.45;;;12.20;;
18304;SDS011;9278;52.156;21.048;2023-07-02T02:25:04;18.95;;;12.70;;
18304;SDS011;9278;52.156;21.048;2023-07-02T02:27:33;19.42;;;12.63;;
18304;SDS011;9278;52.156;21.048;2023-07-02T02:30:02;19.63;;;12.60;;
18304;SDS011;9278;52.156;21.048;2023-07-02T02:32:33;20.27;;;12.90;;
18304;SDS011;9278;52.156;21.048;2023-07-02T02:35:02;19.67;;;12.70;;
18304;SDS011;9278;52.156;21.048;2023-07-02T02:37:32;20.60;;;13.88;;
18304;SDS011;9278;52.156;21.048;2023-07-02T02:40:02;18.85;;;12.25;;
18304;SDS011;9278;52.156;21.048;2023-07-02T02:42:33;18.73;;;12.68;;
18304;SDS011;9278;52.156;21.048;2023-07-02T02:45:03;17.75;;;12.00;;
18304;SDS011;9278;52.156;21.048;2023-07-02T02:47:33;18.83;;;12.80;;
18304;SDS011;9278;52.156;21.048;2023-07-02T02:50:02;21.10;;;13.00;;
18304;SDS011;9278;52.156;21.048;2023-07-02T02:52:30;21.45;;;12.80;;
18304;SDS011;9278;52.156;21.048;2023-07-02T02:54:58;17.38;;;12.30;;
18304;SDS011;9278;52.156;21.048;2023-07-02T02:57:27;19.38;;;12.63;;
18304;SDS011;9278;52.156;21.048;2023-07-02T02:59:57;16.27;;;11.82;;
18304;SDS011;9278;52.156;21.048;2023-07-02T03:02:25;21.52;;;13.18;;
18304;SDS011;9278;52.156;21.048;2023-07-02T03:04:53;18.63;;;12.43;;
18304;SDS011;9278;52.156;21.048;2023-07-02T03:07:23;19.60;;;13.43;;
18304;SDS011;9278;52.156;21.048;2023-07-02T03:09:51;19.20;;;12.68;;
18304;SDS011;9278;52.156;21.048;2023-07-02T03:12:21;17.70;;;12.77;;
18304;SDS011;9278;52.156;21.048;2023-07-02T03:14:52;20.58;;;12.05;;
18304;SDS011;9278;52.156;21.048;2023-07-02T03:17:23;17.75;;;11.82;;
18304;SDS011;9278;52.156;21.048;2023-07-02T03:19:52;17.75;;;12.15;;
18304;SDS011;9278;52.156;21.048;2023-07-02T03:22:20;17.75;;;12.20;;
18304;SDS011;9278;52.156;21.048;2023-07-02T03:24:48;19.85;;;12.20;;
18304;SDS011;9278;52.156;21.048;2023-07-02T03:27:17;17.27;;;11.48;;
18304;SDS011;9278;52.156;21.048;2023-07-02T03:29:45;18.08;;;12.32;;
18304;SDS011;9278;52.156;21.048;2023-07-02T03:32:13;17.63;;;12.52;;
18304;SDS011;9278;52.156;21.048;2023-07-02T03:34:42;19.27;;;12.35;;
18304;SDS011;9278;52.156;21.048;2023-07-02T03:37:11;19.95;;;11.98;;
18304;SDS011;9278;52.156;21.048;2023-07-02T03:39:39;17.73;;;11.35;;
18304;SDS011;9278;52.156;21.048;2023-07-02T03:42:07;19.67;;;12.77;;
18304;SDS011;9278;52.156;21.048;2023-07-02T03:44:35;15.73;;;11.55;;
18304;SDS011;9278;52.156;21.048;2023-07-02T03:47:04;16.88;;;11.55;;
18304;SDS011;9278;52.156;21.048;2023-07-02T03:49:34;19.00;;;11.98;;
18304;SDS011;9278;52.156;21.048;2023-07-02T03:52:04;17.33;;;12.05;;
18304;SDS011;9278;52.156;21.048;2023-07-02T03:54:34;16.30;;;11.48;;
18304;SDS011;9278;52.156;21.048;2023-07-02T03:57:02;15.70;;;11.27;;
18304;SDS011;9278;52.156;21.048;2023-07-02T03:59:31;16.83;;;11.77;;
18304;SDS011;9278;52.156;21.048;2023-07-02T04:01:59;15.50;;;11.15;;
18304;SDS011;9278;52.156;21.048;2023-07-02T04:04:27;16.23;;;11.13;;
18304;SDS011;9278;52.156;21.048;2023-07-02T04:06:56;17.23;;;11.18;;
18304;SDS011;9278;52.156;21.048;2023-07-02T04:09:25;17.40;;;11.90;;
18304;SDS011;9278;52.156;21.048;2023-07-02T04:11:54;15.95;;;10.98;;
18304;SDS011;9278;52.156;21.048;2023-07-02T04:14:22;15.35;;;10.43;;
18304;SDS011;9278;52.156;21.048;2023-07-02T04:16:50;15.70;;;10.90;;
18304;SDS011;9278;52.156;21.048;2023-07-02T04:19:18;14.88;;;11.30;;
18304;SDS011;9278;52.156;21.048;2023-07-02T04:21:47;15.63;;;10.63;;
18304;SDS011;9278;52.156;21.048;2023-07-02T04:24:15;16.00;;;10.88;;
18304;SDS011;9278;52.156;21.048;2023-07-02T04:26:45;17.33;;;10.70;;
18304;SDS011;9278;52.156;21.048;2023-07-02T04:29:34;16.75;;;11.02;;
18304;SDS011;9278;52.156;21.048;2023-07-02T04:32:02;17.20;;;10.88;;
18304;SDS011;9278;52.156;21.048;2023-07-02T04:34:30;14.55;;;10.38;;
18304;SDS011;9278;52.156;21.048;2023-07-02T04:36:58;15.52;;;10.93;;
18304;SDS011;9278;52.156;21.048;2023-07-02T04:39:27;18.00;;;10.18;;
18304;SDS011;9278;52.156;21.048;2023-07-02T04:41:56;14.25;;;10.23;;
18304;SDS011;9278;52.156;21.048;2023-07-02T04:44:25;14.98;;;10.70;;
18304;SDS011;9278;52.156;21.048;2023-07-02T04:46:56;14.90;;;9.95;;
18304;SDS011;9278;52.156;21.048;2023-07-02T04:49:25;17.25;;;10.38;;
18304;SDS011;9278;52.156;21.048;2023-07-02T04:51:53;14.25;;;9.77;;
18304;SDS011;9278;52.156;21.048;2023-07-02T04:54:22;16.92;;;10.55;;
18304;SDS011;9278;52.156;21.048;2023-07-02T04:56:50;16.52;;;10.13;;
18304;SDS011;9278;52.156;21.048;2023-07-02T04:59:20;21.20;;;10.68;;
18304;SDS011;9278;52.156;21.048;2023-07-02T05:01:49;17.17;;;10.43;;
18304;SDS011;9278;52.156;21.048;2023-07-02T05:04:18;17.27;;;10.13;;
18304;SDS011;9278;52.156;21.048;2023-07-02T05:06:46;18.02;;;9.93;;
18304;SDS011;9278;52.156;21.048;2023-07-02T05:09:14;14.93;;;9.85;;
18304;SDS011;9278;52.156;21.048;2023-07-02T05:11:43;15.15;;;9.68;;
18304;SDS011;9278;52.156;21.048;2023-07-02T05:14:11;14.70;;;9.57;;
18304;SDS011;9278;52.156;21.048;2023-07-02T05:16:40;14.93;;;9.75;;
18304;SDS011;9278;52.156;21.048;2023-07-02T05:19:09;12.82;;;9.32;;
18304;SDS011;9278;52.156;21.048;2023-07-02T05:21:37;13.77;;;9.18;;
18304;SDS011;9278;52.156;21.048;2023-07-02T05:24:05;15.45;;;9.48;;
18304;SDS011;9278;52.156;21.048;2023-07-02T05:26:36;17.17;;;9.68;;
18304;SDS011;9278;52.156;21.048;2023-07-02T05:29:04;13.52;;;9.23;;
18304;SDS011;9278;52.156;21.048;2023-07-02T05:31:32;12.88;;;8.25;;
18304;SDS011;9278;52.156;21.048;2023-07-02T05:34:02;17.17;;;9.10;;
18304;SDS011;9278;52.156;21.048;2023-07-02T05:36:31;13.23;;;7.85;;
18304;SDS011;9278;52.156;21.048;2023-07-02T05:39:01;12.60;;;8.55;;
18304;SDS011;9278;52.156;21.048;2023-07-02T05:41:29;17.98;;;8.77;;
18304;SDS011;9278;52.156;21.048;2023-07-02T05:43:57;17.27;;;8.57;;
18304;SDS011;9278;52.156;21.048;2023-07-02T05:46:26;11.80;;;9.00;;
18304;SDS011;9278;52.156;21.048;2023-07-02T05:48:54;15.18;;;8.27;;
18304;SDS011;9278;52.156;21.048;2023-07-02T05:51:25;12.85;;;8.23;;
18304;SDS011;9278;52.156;21.048;2023-07-02T05:53:53;14.27;;;8.68;;
18304;SDS011;9278;52.156;21.048;2023-07-02T05:56:21;11.63;;;7.80;;
18304;SDS011;9278;52.156;21.048;2023-07-02T05:58:49;14.52;;;7.70;;
18304;SDS011;9278;52.156;21.048;2023-07-02T06:01:18;11.70;;;8.45;;
18304;SDS011;9278;52.156;21.048;2023-07-02T06:03:48;14.98;;;9.40;;
18304;SDS011;9278;52.156;21.048;2023-07-02T06:06:17;20.15;;;11.43;;
18304;SDS011;9278;52.156;21.048;2023-07-02T06:08:47;18.17;;;10.68;;
18304;SDS011;9278;52.156;21.048;2023-07-02T06:11:15;17.02;;;10.25;;
18304;SDS011;9278;52.156;21.048;2023-07-02T06:13:43;19.70;;;10.02;;
18304;SDS011;9278;52.156;21.048;2023-07-02T06:16:11;19.35;;;11.45;;
18304;SDS011;9278;52.156;21.048;2023-07-02T06:18:40;22.00;;;13.00;;
18304;SDS011;9278;52.156;21.048;2023-07-02T06:21:08;32.78;;;17.17;;
18304;SDS011;9278;52.156;21.048;2023-07-02T06:23:40;27.17;;;15.55;;
18304;SDS011;9278;52.156;21.048;2023-07-02T06:26:10;24.85;;;14.45;;
18304;SDS011;9278;52.156;21.048;2023-07-02T06:28:39;25.00;;;12.65;;
18304;SDS011;9278;52.156;21.048;2023-07-02T06:31:07;17.95;;;9.95;;
18304;SDS011;9278;52.156;21.048;2023-07-02T06:33:38;17.83;;;9.82;;
18304;SDS011;9278;52.156;21.048;2023-07-02T06:36:07;16.48;;;9.25;;
18304;SDS011;9278;52.156;21.048;2023-07-02T06:38:38;12.70;;;7.57;;
18304;SDS011;9278;52.156;21.048;2023-07-02T06:41:06;18.38;;;8.02;;
18304;SDS011;9278;52.156;21.048;2023-07-02T06:43:36;11.48;;;7.10;;
18304;SDS011;9278;52.156;21.048;2023-07-02T06:46:04;11.43;;;7.40;;
18304;SDS011;9278;52.156;21.048;2023-07-02T06:48:32;12.43;;;7.65;;
18304;SDS011;9278;52.156;21.048;2023-07-02T06:51:00;15.95;;;7.65;;
18304;SDS011;9278;52.156;21.048;2023-07-02T06:53:29;9.75;;;6.82;;
18304;SDS011;9278;52.156;21.048;2023-07-02T06:55:57;11.38;;;6.97;;
18304;SDS011;9278;52.156;21.048;2023-07-02T06:58:25;10.23;;;6.75;;
18304;SDS011;9278;52.156;21.048;2023-07-02T07:00:55;12.45;;;6.50;;
18304;SDS011;9278;52.156;21.048;2023-07-02T07:03:23;11.52;;;6.75;;
18304;SDS011;9278;52.156;21.048;2023-07-02T07:05:51;13.23;;;7.05;;
18304;SDS011;9278;52.156;21.048;2023-07-02T07:08:20;10.82;;;6.55;;
18304;SDS011;9278;52.156;21.048;2023-07-02T07:10:49;8.07;;;6.00;;
18304;SDS011;9278;52.156;21.048;2023-07-02T07:13:18;12.55;;;6.40;;
18304;SDS011;9278;52.156;21.048;2023-07-02T07:15:46;10.82;;;6.20;;
18304;SDS011;9278;52.156;21.048;2023-07-02T07:18:16;9.93;;;6.18;;
18304;SDS011;9278;52.156;21.048;2023-07-02T07:20:45;9.60;;;6.15;;
18304;SDS011;9278;52.156;21.048;2023-07-02T07:23:14;8.40;;;5.88;;
18304;SDS011;9278;52.156;21.048;2023-07-02T07:25:43;8.95;;;5.38;;
18304;SDS011;9278;52.156;21.048;2023-07-02T07:28:11;7.88;;;5.30;;
18304;SDS011;9278;52.156;21.048;2023-07-02T07:30:42;7.72;;;5.10;;
18304;SDS011;9278;52.156;21.048;2023-07-02T07:33:11;7.10;;;4.85;;
18304;SDS011;9278;52.156;21.048;2023-07-02T07:35:40;10.43;;;4.82;;
18304;SDS011;9278;52.156;21.048;2023-07-02T07:38:08;9.25;;;4.93;;
18304;SDS011;9278;52.156;21.048;2023-07-02T07:40:37;8.95;;;4.75;;
18304;SDS011;9278;52.156;21.048;2023-07-02T07:43:05;7.95;;;4.70;;
18304;SDS011;9278;52.156;21.048;2023-07-02T07:45:33;7.75;;;4.30;;
18304;SDS011;9278;52.156;21.048;2023-07-02T07:48:02;9.88;;;4.60;;
18304;SDS011;9278;52.156;21.048;2023-07-02T07:50:30;8.68;;;4.50;;
18304;SDS011;9278;52.156;21.048;2023-07-02T07:53:00;7.88;;;4.72;;
18304;SDS011;9278;52.156;21.048;2023-07-02T07:55:28;6.95;;;4.07;;
18304;SDS011;9278;52.156;21.048;2023-07-02T07:57:56;6.82;;;3.65;;
18304;SDS011;9278;52.156;21.048;2023-07-02T08:00:25;8.25;;;4.05;;
18304;SDS011;9278;52.156;21.048;2023-07-02T08:02:53;7.90;;;3.97;;
18304;SDS011;9278;52.156;21.048;2023-07-02T08:05:23;6.40;;;3.95;;
18304;SDS011;9278;52.156;21.048;2023-07-02T08:07:51;5.47;;;3.70;;
18304;SDS011;9278;52.156;21.048;2023-07-02T08:10:21;7.13;;;3.90;;
18304;SDS011;9278;52.156;21.048;2023-07-02T08:12:50;5.95;;;3.33;;
18304;SDS011;9278;52.156;21.048;2023-07-02T08:15:19;4.45;;;3.22;;
18304;SDS011;9278;52.156;21.048;2023-07-02T08:17:48;5.28;;;3.17;;
18304;SDS011;9278;52.156;21.048;2023-07-02T08:20:18;5.57;;;3.15;;
18304;SDS011;9278;52.156;21.048;2023-07-02T08:22:46;5.57;;;3.20;;
18304;SDS011;9278;52.156;21.048;2023-07-02T08:25:14;5.90;;;3.33;;
18304;SDS011;9278;52.156;21.048;2023-07-02T08:27:45;9.52;;;2.92;;
18304;SDS011;9278;52.156;21.048;2023-07-02T08:30:13;5.53;;;2.92;;
18304;SDS011;9278;52.156;21.048;2023-07-02T08:32:41;4.18;;;2.70;;
18304;SDS011;9278;52.156;21.048;2023-07-02T08:35:10;4.75;;;2.85;;
18304;SDS011;9278;52.156;21.048;2023-07-02T08:37:38;6.47;;;2.90;;
18304;SDS011;9278;52.156;21.048;2023-07-02T08:40:15;4.30;;;3.00;;
18304;SDS011;9278;52.156;21.048;2023-07-02T08:42:46;3.85;;;2.55;;
18304;SDS011;9278;52.156;21.048;2023-07-02T08:45:14;5.38;;;2.70;;
18304;SDS011;9278;52.156;21.048;2023-07-02T08:47:43;3.22;;;2.30;;
18304;SDS011;9278;52.156;21.048;2023-07-02T08:50:12;6.32;;;2.60;;
18304;SDS011;9278;52.156;21.048;2023-07-02T08:52:41;3.60;;;2.50;;
18304;SDS011;9278;52.156;21.048;2023-07-02T08:55:12;5.80;;;2.65;;
18304;SDS011;9278;52.156;21.048;2023-07-02T08:57:40;5.53;;;2.50;;
18304;SDS011;9278;52.156;21.048;2023-07-02T09:00:17;4.03;;;2.60;;
18304;SDS011;9278;52.156;21.048;2023-07-02T09:02:46;4.13;;;2.70;;
18304;SDS011;9278;52.156;21.048;2023-07-02T09:05:14;4.63;;;2.40;;
18304;SDS011;9278;52.156;21.048;2023-07-02T09:07:43;5.45;;;2.83;;
18304;SDS011;9278;52.156;21.048;2023-07-02T09:10:12;4.55;;;2.55;;
18304;SDS011;9278;52.156;21.048;2023-07-02T09:13:02;3.05;;;2.40;;
18304;SDS011;9278;52.156;21.048;2023-07-02T09:15:36;5.53;;;2.38;;
18304;SDS011;9278;52.156;21.048;2023-07-02T09:18:15;4.95;;;2.38;;
18304;SDS011;9278;52.156;21.048;2023-07-02T09:20:45;5.95;;;2.35;;
18304;SDS011;9278;52.156;21.048;2023-07-02T09:23:14;3.22;;;2.38;;
18304;SDS011;9278;52.156;21.048;2023-07-02T09:25:42;3.15;;;2.38;;
18304;SDS011;9278;52.156;21.048;2023-07-02T09:28:14;2.60;;;2.40;;
18304;SDS011;9278;52.156;21.048;2023-07-02T09:30:52;6.13;;;2.40;;
18304;SDS011;9278;52.156;21.048;2023-07-02T09:33:22;5.88;;;2.72;;
18304;SDS011;9278;52.156;21.048;2023-07-02T09:35:52;9.80;;;2.85;;
18304;SDS011;9278;52.156;21.048;2023-07-02T09:38:20;6.43;;;2.58;;
18304;SDS011;9278;52.156;21.048;2023-07-02T09:40:50;3.22;;;2.30;;
18304;SDS011;9278;52.156;21.048;2023-07-02T09:43:19;5.47;;;2.40;;
18304;SDS011;9278;52.156;21.048;2023-07-02T09:45:50;4.93;;;2.50;;
18304;SDS011;9278;52.156;21.048;2023-07-02T09:48:22;3.58;;;2.50;;
18304;SDS011;9278;52.156;21.048;2023-07-02T09:50:53;7.65;;;2.50;;
18304;SDS011;9278;52.156;21.048;2023-07-02T09:53:22;4.35;;;2.50;;
18304;SDS011;9278;52.156;21.048;2023-07-02T09:55:51;4.50;;;2.30;;
18304;SDS011;9278;52.156;21.048;2023-07-02T09:58:19;10.80;;;2.35;;
18304;SDS011;9278;52.156;21.048;2023-07-02T10:00:48;5.07;;;2.30;;
18304;SDS011;9278;52.156;21.048;2023-07-02T10:03:17;5.30;;;1.90;;
18304;SDS011;9278;52.156;21.048;2023-07-02T10:06:03;3.67;;;2.40;;
18304;SDS011;9278;52.156;21.048;2023-07-02T10:08:32;5.85;;;2.40;;
18304;SDS011;9278;52.156;21.048;2023-07-02T10:11:08;5.72;;;2.42;;
18304;SDS011;9278;52.156;21.048;2023-07-02T10:13:40;6.18;;;2.35;;
18304;SDS011;9278;52.156;21.048;2023-07-02T10:16:09;4.90;;;2.30;;
18304;SDS011;9278;52.156;21.048;2023-07-02T10:18:38;5.40;;;2.20;;
18304;SDS011;9278;52.156;21.048;2023-07-02T10:21:13;6.47;;;2.40;;
18304;SDS011;9278;52.156;21.048;2023-07-02T10:23:43;3.35;;;2.30;;
18304;SDS011;9278;52.156;21.048;2023-07-02T10:26:14;5.15;;;2.20;;
18304;SDS011;9278;52.156;21.048;2023-07-02T10:28:55;4.38;;;2.08;;
18304;SDS011;9278;52.156;21.048;2023-07-02T10:31:23;4.07;;;2.20;;
18304;SDS011;9278;52.156;21.048;2023-07-02T10:33:53;6.55;;;2.05;;
18304;SDS011;9278;52.156;21.048;2023-07-02T10:36:22;4.43;;;2.30;;
18304;SDS011;9278;52.156;21.048;2023-07-02T10:38:51;2.78;;;1.90;;
18304;SDS011;9278;52.156;21.048;2023-07-02T10:41:23;3.50;;;2.08;;
18304;SDS011;9278;52.156;21.048;2023-07-02T10:43:53;4.95;;;2.03;;
18304;SDS011;9278;52.156;21.048;2023-07-02T10:46:21;3.10;;;2.05;;
18304;SDS011;9278;52.156;21.048;2023-07-02T10:48:54;2.58;;;1.90;;
18304;SDS011;9278;52.156;21.048;2023-07-02T10:51:23;2.95;;;1.95;;
18304;SDS011;9278;52.156;21.048;2023-07-02T10:53:58;3.60;;;2.10;;
18304;SDS011;9278;52.156;21.048;2023-07-02T10:56:27;2.50;;;1.95;;
18304;SDS011;9278;52.156;21.048;2023-07-02T10:58:55;2.83;;;1.98;;
18304;SDS011;9278;52.156;21.048;2023-07-02T11:01:25;2.78;;;2.10;;
18304;SDS011;9278;52.156;21.048;2023-07-02T11:03:59;2.92;;;2.03;;
18304;SDS011;9278;52.156;21.048;2023-07-02T11:06:30;4.60;;;2.17;;
18304;SDS011;9278;52.156;21.048;2023-07-02T11:09:00;3.30;;;2.00;;
18304;SDS011;9278;52.156;21.048;2023-07-02T11:11:28;3.88;;;2.10;;
18304;SDS011;9278;52.156;21.048;2023-07-02T11:13:57;3.42;;;2.05;;
18304;SDS011;9278;52.156;21.048;2023-07-02T11:16:25;2.33;;;1.90;;
18304;SDS011;9278;52.156;21.048;2023-07-02T11:19:07;3.72;;;1.80;;
18304;SDS011;9278;52.156;21.048;2023-07-02T11:21:36;2.92;;;1.85;;
18304;SDS011;9278;52.156;21.048;2023-07-02T11:24:05;4.15;;;2.20;;
18304;SDS011;9278;52.156;21.048;2023-07-02T11:26:36;2.63;;;2.10;;
18304;SDS011;9278;52.156;21.048;2023-07-02T11:29:10;4.65;;;1.80;;
18304;SDS011;9278;52.156;21.048;2023-07-02T11:31:39;4.07;;;2.15;;
18304;SDS011;9278;52.156;21.048;2023-07-02T11:34:15;8.55;;;2.10;;
18304;SDS011;9278;52.156;21.048;2023-07-02T11:36:45;2.45;;;2.00;;
18304;SDS011;9278;52.156;21.048;2023-07-02T11:39:13;4.57;;;1.80;;
18304;SDS011;9278;52.156;21.048;2023-07-02T11:41:43;2.25;;;1.60;;
18304;SDS011;9278;52.156;21.048;2023-07-02T11:44:12;2.25;;;1.90;;
18304;SDS011;9278;52.156;21.048;2023-07-02T11:46:40;4.55;;;1.67;;
18304;SDS011;9278;52.156;21.048;2023-07-02T11:49:08;4.75;;;1.67;;
18304;SDS011;9278;52.156;21.048;2023-07-02T11:51:39;3.40;;;1.60;;
18304;SDS011;9278;52.156;21.048;2023-07-02T11:54:08;2.30;;;1.50;;
18304;SDS011;9278;52.156;21.048;2023-07-02T11:56:36;3.42;;;1.55;;
18304;SDS011;9278;52.156;21.048;2023-07-02T11:59:05;3.83;;;1.70;;
18304;SDS011;9278;52.156;21.048;2023-07-02T12:01:33;5.40;;;1.75;;
18304;SDS011;9278;52.156;21.048;2023-07-02T12:04:01;4.65;;;1.70;;
18304;SDS011;9278;52.156;21.048;2023-07-02T12:06:29;5.03;;;1.70;;
18304;SDS011;9278;52.156;21.048;2023-07-02T12:08:59;8.70;;;1.77;;
18304;SDS011;9278;52.156;21.048;2023-07-02T12:11:27;3.10;;;1.80;;
18304;SDS011;9278;52.156;21.048;2023-07-02T12:13:55;4.05;;;1.75;;
18304;SDS011;9278;52.156;21.048;2023-07-02T12:16:24;3.30;;;1.80;;
18304;SDS011;9278;52.156;21.048;2023-07-02T12:18:54;5.07;;;1.60;;
18304;SDS011;9278;52.156;21.048;2023-07-02T12:21:22;2.58;;;1.50;;
18304;SDS011;9278;52.156;21.048;2023-07-02T12:23:50;3.05;;;1.70;;
18304;SDS011;9278;52.156;21.048;2023-07-02T12:26:20;5.18;;;1.55;;
18304;SDS011;9278;52.156;21.048;2023-07-02T12:28:48;9.57;;;1.58;;
18304;SDS011;9278;52.156;21.048;2023-07-02T12:31:16;4.38;;;1.70;;
18304;SDS011;9278;52.156;21.048;2023-07-02T12:33:45;2.22;;;1.70;;
18304;SDS011;9278;52.156;21.048;2023-07-02T12:36:13;3.65;;;1.80;;
18304;SDS011;9278;52.156;21.048;2023-07-02T12:38:41;8.05;;;2.20;;
18304;SDS011;9278;52.156;21.048;2023-07-02T12:41:11;13.75;;;2.80;;
18304;SDS011;9278;52.156;21.048;2023-07-02T12:43:40;7.45;;;2.38;;
18304;SDS011;9278;52.156;21.048;2023-07-02T12:46:09;7.10;;;1.80;;
18304;SDS011;9278;52.156;21.048;2023-07-02T12:48:37;5.65;;;1.98;;
18304;SDS011;9278;52.156;21.048;2023-07-02T12:51:05;2.63;;;1.83;;
18304;SDS011;9278;52.156;21.048;2023-07-02T12:53:33;2.88;;;1.63;;
18304;SDS011;9278;52.156;21.048;2023-07-02T12:56:02;3.53;;;1.80;;
18304;SDS011;9278;52.156;21.048;2023-07-02T12:58:30;2.53;;;1.85;;
18304;SDS011;9278;52.156;21.048;2023-07-02T13:01:00;3.33;;;1.60;;
18304;SDS011;9278;52.156;21.048;2023-07-02T13:03:29;4.63;;;1.70;;
18304;SDS011;9278;52.156;21.048;2023-07-02T13:05:58;2.40;;;1.63;;
18304;SDS011;9278;52.156;21.048;2023-07-02T13:08:26;3.20;;;1.30;;
18304;SDS011;9278;52.156;21.048;2023-07-02T13:10:54;3.40;;;1.48;;
18304;SDS011;9278;52.156;21.048;2023-07-02T13:13:22;2.55;;;1.40;;
18304;SDS011;9278;52.156;21.048;2023-07-02T13:15:55;2.13;;;1.50;;
18304;SDS011;9278;52.156;21.048;2023-07-02T13:18:25;2.72;;;1.60;;
18304;SDS011;9278;52.156;21.048;2023-07-02T13:20:54;3.25;;;1.50;;
18304;SDS011;9278;52.156;21.048;2023-07-02T13:23:22;2.20;;;1.40;;
18304;SDS011;9278;52.156;21.048;2023-07-02T13:25:50;2.90;;;1.63;;
18304;SDS011;9278;52.156;21.048;2023-07-02T13:28:18;5.45;;;1.55;;
18304;SDS011;9278;52.156;21.048;2023-07-02T13:30:48;2.03;;;1.42;;
18304;SDS011;9278;52.156;21.048;2023-07-02T13:33:16;5.43;;;1.30;;
18304;SDS011;9278;52.156;21.048;2023-07-02T13:35:46;3.78;;;1.55;;
18304;SDS011;9278;52.156;21.048;2023-07-02T13:38:14;6.10;;;1.48;;
18304;SDS011;9278;52.156;21.048;2023-07-02T13:40:43;2.40;;;1.40;;
18304;SDS011;9278;52.156;21.048;2023-07-02T13:43:11;4.78;;;1.40;;
18304;SDS011;9278;52.156;21.048;2023-07-02T13:45:39;2.40;;;1.40;;
18304;SDS011;9278;52.156;21.048;2023-07-02T13:48:08;3.83;;;1.67;;
18304;SDS011;9278;52.156;21.048;2023-07-02T13:50:36;2.28;;;1.50;;
18304;SDS011;9278;52.156;21.048;2023-07-02T13:53:06;7.03;;;1.60;;
18304;SDS011;9278;52.156;21.048;2023-07-02T13:55:35;5.55;;;1.65;;
18304;SDS011;9278;52.156;21.048;2023-07-02T13:58:03;1.98;;;1.45;;
18304;SDS011;9278;52.156;21.048;2023-07-02T14:00:33;1.80;;;1.20;;
18304;SDS011;9278;52.156;21.048;2023-07-02T14:03:01;2.70;;;1.60;;
18304;SDS011;9278;52.156;21.048;2023-07-02T14:05:31;3.35;;;1.40;;
18304;SDS011;9278;52.156;21.048;2023-07-02T14:07:59;2.50;;;1.52;;
18304;SDS011;9278;52.156;21.048;2023-07-02T14:10:28;5.18;;;1.40;;
18304;SDS011;9278;52.156;21.048;2023-07-02T14:12:56;6.50;;;1.70;;
18304;SDS011;9278;52.156;21.048;2023-07-02T14:15:24;6.45;;;1.40;;
18304;SDS011;9278;52.156;21.048;2023-07-02T14:17:58;2.35;;;1.40;;
18304;SDS011;9278;52.156;21.048;2023-07-02T14:20:26;1.35;;;1.20;;
18304;SDS011;9278;52.156;21.048;2023-07-02T14:22:54;3.00;;;1.60;;
18304;SDS011;9278;52.156;21.048;2023-07-02T14:25:22;1.92;;;1.30;;
18304;SDS011;9278;52.156;21.048;2023-07-02T14:28:06;5.28;;;1.60;;
18304;SDS011;9278;52.156;21.048;2023-07-02T14:30:35;1.55;;;1.40;;
18304;SDS011;9278;52.156;21.048;2023-07-02T14:33:05;4.22;;;1.40;;
18304;SDS011;9278;52.156;21.048;2023-07-02T14:35:33;2.30;;;1.40;;
18304;SDS011;9278;52.156;21.048;2023-07-02T14:38:02;2.17;;;1.60;;
18304;SDS011;9278;52.156;21.048;2023-07-02T14:40:31;5.40;;;1.70;;
18304;SDS011;9278;52.156;21.048;2023-07-02T14:42:59;5.85;;;1.33;;
18304;SDS011;9278;52.156;21.048;2023-07-02T14:45:30;5.57;;;1.30;;
18304;SDS011;9278;52.156;21.048;2023-07-02T14:47:58;3.83;;;1.48;;